ECLNG LEIB-LEIB

Flight info

Callsign ECLNG
Flight time 0h 8m
Altitude 1234
Route VFR
Aircraft B06/L-SDFGRY/LB1

Departure

Time 2026-05-01 14:40
Airport Ibiza Airport (LEIB)

Arrival

Time 2026-05-01 14:48
Airport Ibiza Airport (LEIB)
Time Latitude Longitude Altitude Speed Heading
2026-05-01 14:14 38.87764 1.37492 44 ft 0 kts 181°
2026-05-01 14:27 38.87764 1.37491 44 ft 1 kts 187°
2026-05-01 14:27 38.87745 1.37474 49 ft 4 kts 162°
2026-05-01 14:27 38.87690 1.37492 53 ft 11 kts 162°
2026-05-01 14:28 38.87594 1.37602 58 ft 4 kts 155°
2026-05-01 14:28 38.87580 1.37613 49 ft 2 kts 168°
2026-05-01 14:28 38.87578 1.37612 55 ft 1 kts 162°
2026-05-01 14:28 38.87583 1.37610 41 ft 1 kts 162°
2026-05-01 14:29 38.87579 1.37606 42 ft 3 kts 238°
2026-05-01 14:29 38.87579 1.37597 49 ft 2 kts 243°
2026-05-01 14:30 38.87580 1.37608 50 ft 1 kts 242°
2026-05-01 14:30 38.87576 1.37590 47 ft 2 kts 244°
2026-05-01 14:30 38.87574 1.37592 57 ft 1 kts 255°
2026-05-01 14:31 38.87594 1.37620 61 ft 3 kts 205°
2026-05-01 14:31 38.87599 1.37629 55 ft 1 kts 216°
2026-05-01 14:31 38.87600 1.37633 55 ft 1 kts 228°
2026-05-01 14:31 38.87600 1.37637 52 ft 0 kts 240°
2026-05-01 14:32 38.87602 1.37640 51 ft 1 kts 234°
2026-05-01 14:32 38.87602 1.37644 56 ft 1 kts 235°
2026-05-01 14:32 38.87599 1.37637 50 ft 1 kts 240°
2026-05-01 14:32 38.87600 1.37638 56 ft 1 kts 246°
2026-05-01 14:33 38.87600 1.37636 51 ft 0 kts 246°
2026-05-01 14:33 38.87601 1.37636 52 ft 0 kts 238°
2026-05-01 14:33 38.87599 1.37634 46 ft 0 kts 255°
2026-05-01 14:33 38.87597 1.37629 38 ft 0 kts 265°
2026-05-01 14:37 38.87597 1.37628 38 ft 0 kts 260°
2026-05-01 14:38 38.87584 1.37619 49 ft 5 kts 173°
2026-05-01 14:38 38.87512 1.37628 56 ft 13 kts 133°
2026-05-01 14:38 38.87458 1.37690 41 ft 8 kts 95°
2026-05-01 14:38 38.87451 1.37714 44 ft 2 kts 74°
2026-05-01 14:39 38.87454 1.37722 48 ft 4 kts 72°
2026-05-01 14:39 38.87483 1.37792 107 ft 22 kts 73°
2026-05-01 14:39 38.87627 1.38048 291 ft 50 kts 48°
2026-05-01 14:39 38.88037 1.38040 433 ft 67 kts 333°
2026-05-01 14:40 38.88279 1.37555 562 ft 68 kts 276°
2026-05-01 14:40 38.88176 1.36948 681 ft 72 kts 243°
2026-05-01 14:40 38.87972 1.36264 687 ft 93 kts 252°
2026-05-01 14:40 38.87740 1.35478 763 ft 96 kts 248°
2026-05-01 14:41 38.87489 1.34665 808 ft 101 kts 260°
2026-05-01 14:41 38.87927 1.34155 731 ft 88 kts 15°
2026-05-01 14:41 38.88273 1.34660 827 ft 77 kts 88°
2026-05-01 14:41 38.88042 1.35259 874 ft 84 kts 143°
2026-05-01 14:42 38.87482 1.35223 845 ft 93 kts 224°
2026-05-01 14:42 38.87437 1.34480 848 ft 91 kts 315°
2026-05-01 14:42 38.87976 1.34418 857 ft 79 kts 46°
2026-05-01 14:42 38.88035 1.35023 896 ft 81 kts 128°
2026-05-01 14:43 38.87496 1.35004 848 ft 88 kts 232°
2026-05-01 14:43 38.87616 1.34325 836 ft 85 kts 340°
2026-05-01 14:43 38.88038 1.34559 881 ft 78 kts 58°
2026-05-01 14:43 38.88180 1.35204 735 ft 87 kts 131°
2026-05-01 14:44 38.87774 1.35013 775 ft 77 kts 262°
2026-05-01 14:44 38.88250 1.35097 795 ft 67 kts 120°
2026-05-01 14:44 38.87778 1.35301 748 ft 85 kts 199°
2026-05-01 14:45 38.87593 1.34672 770 ft 86 kts 304°
2026-05-01 14:45 38.88223 1.35211 759 ft 81 kts 111°
2026-05-01 14:45 38.87755 1.35344 757 ft 84 kts 220°
2026-05-01 14:46 38.87674 1.34670 799 ft 82 kts 306°
2026-05-01 14:46 38.88075 1.35174 742 ft 87 kts 146°
2026-05-01 14:46 38.87554 1.34857 578 ft 101 kts 263°
2026-05-01 14:47 38.87977 1.34439 514 ft 86 kts 34°
2026-05-01 14:47 38.87850 1.34931 407 ft 84 kts 174°
2026-05-01 14:47 38.87270 1.34972 441 ft 89 kts 171°
2026-05-01 14:48 38.86692 1.35864 102 ft 59 kts 76°
2026-05-01 14:48 38.86815 1.36176 29 ft 14 kts 67°
2026-05-01 14:48 38.87036 1.36726 140 ft 59 kts 62°
2026-05-01 14:49 38.87225 1.37877 297 ft 83 kts 124°
2026-05-01 14:49 38.86653 1.37488 455 ft 51 kts 334°
2026-05-01 14:50 38.86885 1.37712 432 ft 43 kts 114°
2026-05-01 14:50 38.86693 1.37324 359 ft 54 kts 44°
2026-05-01 14:51 38.86615 1.37640 312 ft 59 kts 180°
2026-05-01 14:51 38.86686 1.37260 316 ft 37 kts 65°
2026-05-01 14:52 38.86287 1.37543 395 ft 60 kts 227°
2026-05-01 14:52 38.86261 1.37075 408 ft 57 kts 318°
2026-05-01 14:52 38.86522 1.37397 432 ft 47 kts 140°
2026-05-01 14:53 38.86175 1.37390 453 ft 57 kts 217°
2026-05-01 14:53 38.86031 1.36912 430 ft 56 kts 252°
2026-05-01 14:53 38.85870 1.36455 431 ft 68 kts 245°
2026-05-01 14:53 38.85729 1.35848 407 ft 74 kts 287°
2026-05-01 14:54 38.86022 1.35451 314 ft 57 kts 349°
2026-05-01 14:54 38.86366 1.35416 220 ft 43 kts 33°
2026-05-01 14:54 38.86564 1.35596 142 ft 25 kts 64°
2026-05-01 14:54 38.86642 1.35760 104 ft 20 kts 68°
2026-05-01 14:55 38.86741 1.35992 167 ft 42 kts 68°
2026-05-01 14:55 38.86918 1.36439 215 ft 69 kts 68°
2026-05-01 14:55 38.86787 1.37009 333 ft 72 kts 135°
2026-05-01 14:55 38.86299 1.37223 534 ft 73 kts 162°
2026-05-01 14:56 38.85850 1.37448 697 ft 66 kts 155°
2026-05-01 14:56 38.85399 1.37672 789 ft 70 kts 153°
2026-05-01 14:56 38.84968 1.37958 886 ft 71 kts 150°
2026-05-01 14:56 38.84548 1.37673 927 ft 83 kts 251°
2026-05-01 14:57 38.84781 1.37074 938 ft 81 kts 343°
2026-05-01 14:57 38.85332 1.37942 1023 ft 75 kts 51°
2026-05-01 14:57 38.85747 1.38461 1032 ft 83 kts 62°
2026-05-01 14:58 38.85854 1.39166 1033 ft 91 kts 105°
2026-05-01 14:58 38.85331 1.39542 988 ft 100 kts 192°
2026-05-01 14:58 38.85076 1.38790 935 ft 99 kts 299°
2026-05-01 14:58 38.85614 1.38639 908 ft 82 kts 41°
2026-05-01 14:59 38.85675 1.39278 913 ft 81 kts 124°
2026-05-01 14:59 38.85159 1.39477 927 ft 89 kts 192°
2026-05-01 14:59 38.84838 1.38793 814 ft 98 kts 283°
2026-05-01 14:59 38.85330 1.38412 777 ft 87 kts 19°
2026-05-01 15:00 38.85331 1.39315 796 ft 81 kts 154°
2026-05-01 15:00 38.84754 1.38752 769 ft 90 kts 261°
2026-05-01 15:00 38.84873 1.38262 772 ft 90 kts 309°
2026-05-01 15:01 38.85422 1.38075 732 ft 85 kts 27°
2026-05-01 15:01 38.85669 1.38644 789 ft 73 kts 95°
2026-05-01 15:01 38.85330 1.39121 818 ft 81 kts 160°
2026-05-01 15:01 38.84817 1.38845 818 ft 89 kts 234°
2026-05-01 15:02 38.84685 1.38108 870 ft 89 kts 280°
2026-05-01 15:02 38.84897 1.37603 821 ft 106 kts 307°
2026-05-01 15:02 38.85560 1.36402 596 ft 134 kts 316°
2026-05-01 15:02 38.86272 1.35739 481 ft 121 kts 340°
2026-05-01 15:03 38.86810 1.36194 50 ft 97 kts 59°
2026-05-01 15:03 38.87008 1.36671 29 ft 23 kts 60°
2026-05-01 15:03 38.87028 1.36725 24 ft 3 kts 66°
2026-05-01 15:03 38.87118 1.36932 58 ft 47 kts 66°
2026-05-01 15:04 38.87312 1.37402 133 ft 67 kts 66°
2026-05-01 15:04 38.87241 1.37935 297 ft 71 kts 138°
2026-05-01 15:04 38.86787 1.38151 459 ft 79 kts 163°
2026-05-01 15:04 38.86278 1.37842 550 ft 89 kts 233°
2026-05-01 15:05 38.86010 1.37095 617 ft 101 kts 239°
2026-05-01 15:05 38.85664 1.36257 630 ft 109 kts 251°
2026-05-01 15:05 38.85918 1.35434 406 ft 96 kts 343°
2026-05-01 15:05 38.86489 1.35589 220 ft 86 kts 37°
2026-05-01 15:06 38.86794 1.36122 49 ft 49 kts 61°
2026-05-01 15:06 38.86853 1.36281 24 ft 8 kts 67°
2026-05-01 15:06 38.86935 1.36481 48 ft 49 kts 66°
2026-05-01 15:06 38.87137 1.36990 88 ft 77 kts 64°
2026-05-01 15:07 38.87407 1.37687 126 ft 95 kts 67°
2026-05-01 15:07 38.87721 1.38463 227 ft 99 kts 66°
2026-05-01 15:07 38.88029 1.39225 433 ft 95 kts 65°
2026-05-01 15:07 38.88305 1.39973 629 ft 94 kts 75°
2026-05-01 15:08 38.88824 1.40148 817 ft 91 kts 338°
2026-05-01 15:08 38.89301 1.39560 929 ft 101 kts 292°
2026-05-01 15:08 38.89194 1.38677 1054 ft 104 kts 249°
2026-05-01 15:08 38.88912 1.37735 1031 ft 120 kts 248°
2026-05-01 15:09 38.88597 1.36718 1060 ft 125 kts 245°
2026-05-01 15:09 38.88250 1.35626 982 ft 136 kts 248°
2026-05-01 15:09 38.87867 1.34533 958 ft 131 kts 223°
2026-05-01 15:09 38.87069 1.34336 736 ft 120 kts 155°
2026-05-01 15:10 38.86527 1.35040 413 ft 106 kts 99°
2026-05-01 15:10 38.86914 1.36400 50 ft 46 kts 67°
2026-05-01 15:10 38.87035 1.36699 38 ft 33 kts 67°
2026-05-01 15:11 38.87121 1.36914 29 ft 22 kts 64°
2026-05-01 15:11 38.87257 1.37245 42 ft 34 kts 60°
2026-05-01 15:11 38.87419 1.37466 45 ft 28 kts 35°
2026-05-01 15:12 38.87512 1.37542 42 ft 13 kts 34°
2026-05-01 15:12 38.87722 1.37482 53 ft 11 kts 43°
2026-05-01 15:12 38.87748 1.37504 47 ft 1 kts 68°
2026-05-01 15:13 38.87747 1.37502 44 ft 0 kts 68°